Time,TemperatureF,DewpointF,PressureIn,WindDirection,WindDirectionDegrees,WindSpeedMPH,WindSpeedGustMPH,Humidity,HourlyPrecipIn,Conditions,Clouds,dailyrainin,SoftwareType,DateUTC
2013-10-23 00:13:00,44.0,36.0,30.06,SE,143,0.0,4.0,73,0.00,,,0.00,,2013-10-23 05:13:00,
2013-10-23 00:23:00,43.0,36.0,30.06,SE,143,2.0,4.0,75,0.00,,,0.00,,2013-10-23 05:23:00,
2013-10-23 00:43:00,43.0,36.0,30.07,SE,143,0.0,3.0,76,0.00,,,0.00,,2013-10-23 05:43:00,
2013-10-23 00:52:00,43.0,36.0,30.07,SE,133,0.0,5.0,76,0.00,,,0.00,,2013-10-23 05:52:00,
2013-10-23 01:12:00,43.0,36.0,30.07,SE,133,0.0,4.0,76,0.00,,,0.00,,2013-10-23 06:12:00,
2013-10-23 01:22:00,43.0,36.0,30.07,SE,132,0.0,5.0,76,0.00,,,0.00,,2013-10-23 06:22:00,
2013-10-23 01:42:00,43.0,36.0,30.07,SE,132,0.0,3.0,76,0.00,,,0.00,,2013-10-23 06:42:00,
2013-10-23 01:52:00,43.0,36.0,30.07,SE,132,0.0,0.0,77,0.00,,,0.00,,2013-10-23 06:52:00,
2013-10-23 02:12:00,43.0,37.0,30.06,SE,132,0.0,3.0,78,0.00,,,0.00,,2013-10-23 07:12:00,
2013-10-23 02:22:00,43.0,36.0,30.06,SE,132,0.0,2.0,77,0.00,,,0.00,,2013-10-23 07:22:00,
2013-10-23 02:42:00,43.0,37.0,30.06,SE,132,0.0,1.0,78,0.00,,,0.00,,2013-10-23 07:42:00,
2013-10-23 02:52:00,42.0,36.0,30.07,SSW,194,0.0,3.0,78,0.00,,,0.00,,2013-10-23 07:52:00,
2013-10-23 03:12:00,42.0,36.0,30.07,SSW,194,0.0,1.0,78,0.00,,,0.00,,2013-10-23 08:12:00,
2013-10-23 03:22:00,42.0,36.0,30.06,South,191,0.0,5.0,78,0.00,,,0.00,,2013-10-23 08:22:00,
2013-10-23 03:42:00,42.0,36.0,30.06,South,191,0.0,0.0,79,0.00,,,0.00,,2013-10-23 08:42:00,
2013-10-23 03:52:00,41.0,35.0,30.05,South,191,0.0,3.0,80,0.00,,,0.00,,2013-10-23 08:52:00,
2013-10-23 04:12:00,41.0,35.0,30.04,SSW,193,0.0,4.0,80,0.00,,,0.00,,2013-10-23 09:12:00,
2013-10-23 04:22:00,42.0,36.0,30.04,SSW,193,0.0,0.0,80,0.00,,,0.00,,2013-10-23 09:22:00,
2013-10-23 04:43:00,42.0,36.0,30.03,SSW,192,1.0,7.0,80,0.00,,,0.00,,2013-10-23 09:43:00,
2013-10-23 04:53:00,41.0,35.0,30.04,South,190,2.0,7.0,80,0.00,,,0.00,,2013-10-23 09:53:00,
2013-10-23 05:12:00,41.0,35.0,30.03,SSW,208,3.0,10.0,80,0.00,,,0.00,,2013-10-23 10:12:00,
2013-10-23 05:23:00,41.0,35.0,30.03,SSW,202,2.0,7.0,80,0.00,,,0.00,,2013-10-23 10:23:00,
2013-10-23 05:43:00,41.0,36.0,30.03,SW,236,2.0,7.0,81,0.00,,,0.00,,2013-10-23 10:43:00,
2013-10-23 05:53:00,41.0,36.0,30.03,WSW,240,0.0,0.0,81,0.00,,,0.00,,2013-10-23 10:53:00,
2013-10-23 06:12:00,41.0,36.0,30.03,SSW,207,0.0,0.0,82,0.00,,,0.00,,2013-10-23 11:12:00,
2013-10-23 06:22:00,41.0,36.0,30.03,SSW,203,3.0,6.0,81,0.00,,,0.00,,2013-10-23 11:22:00,
2013-10-23 06:42:00,41.0,36.0,30.02,SSW,199,1.0,7.0,82,0.00,,,0.00,,2013-10-23 11:42:00,
2013-10-23 06:52:00,41.0,36.0,30.03,SSW,193,0.0,6.0,82,0.00,,,0.00,,2013-10-23 11:52:00,
2013-10-23 07:12:00,41.0,36.0,30.02,SSW,194,1.0,5.0,82,0.00,,,0.00,,2013-10-23 12:12:00,
2013-10-23 07:22:00,41.0,36.0,30.03,SSW,204,2.0,8.0,82,0.00,,,0.00,,2013-10-23 12:22:00,
2013-10-23 07:42:00,41.0,36.0,30.03,SSW,209,0.0,3.0,83,0.00,,,0.00,,2013-10-23 12:42:00,
2013-10-23 07:52:00,40.0,35.0,30.02,SSW,207,0.0,3.0,83,0.00,,,0.00,,2013-10-23 12:52:00,
2013-10-23 08:12:00,40.0,36.0,30.02,SSW,203,0.0,0.0,84,0.00,,,0.00,,2013-10-23 13:12:00,
2013-10-23 08:22:00,39.0,35.0,30.02,SSW,203,0.0,0.0,84,0.00,,,0.00,,2013-10-23 13:22:00,
2013-10-23 08:42:00,38.0,34.0,30.02,SSW,203,0.0,0.0,85,0.00,,,0.00,,2013-10-23 13:42:00,
2013-10-23 08:52:00,39.0,36.0,30.01,South,191,2.0,6.0,88,0.00,,,0.00,,2013-10-23 13:52:00,
2013-10-23 09:11:00,39.0,35.0,30.01,South,190,0.0,3.0,87,0.00,,,0.00,,2013-10-23 14:11:00,
2013-10-23 09:22:00,40.0,36.0,30.02,WSW,249,0.0,5.0,86,0.00,,,0.00,,2013-10-23 14:22:00,
2013-10-23 09:42:00,41.0,37.0,30.01,SW,214,1.0,4.0,85,0.00,,,0.00,,2013-10-23 14:42:00,
2013-10-23 09:52:00,41.0,37.0,30.01,WSW,250,2.0,5.0,84,0.00,,,0.00,,2013-10-23 14:52:00,
2013-10-23 10:11:00,42.0,37.0,30.02,WSW,253,4.0,6.0,83,0.00,,,0.00,,2013-10-23 15:11:00,
2013-10-23 10:22:00,43.0,38.0,30.02,West,272,0.0,5.0,83,0.00,,,0.00,,2013-10-23 15:22:00,
2013-10-23 10:43:00,44.0,39.0,30.02,WSW,246,0.0,0.0,81,0.00,,,0.00,,2013-10-23 15:43:00,
2013-10-23 10:53:00,46.0,40.0,30.02,WSW,255,0.0,1.0,78,0.00,,,0.00,,2013-10-23 15:53:00,
2013-10-23 11:12:00,49.0,41.0,30.01,North,360,0.0,4.0,75,0.00,,,0.00,,2013-10-23 16:12:00,
2013-10-23 11:23:00,50.0,42.0,30.01,West,261,1.0,4.0,73,0.00,,,0.00,,2013-10-23 16:23:00,
2013-10-23 11:43:00,52.0,43.0,30.01,WNW,292,0.0,5.0,70,0.00,,,0.00,,2013-10-23 16:43:00,
2013-10-23 11:53:00,54.0,43.0,30.01,NNW,327,2.0,8.0,65,0.00,,,0.00,,2013-10-23 16:53:00,
2013-10-23 12:12:00,56.0,43.0,30.01,WNW,285,6.0,10.0,61,0.00,,,0.00,,2013-10-23 17:12:00,
2013-10-23 12:23:00,57.0,42.0,30.01,North,10,8.0,13.0,57,0.00,,,0.00,,2013-10-23 17:23:00,
2013-10-23 12:44:00,59.0,43.0,30.00,North,355,8.0,16.0,55,0.00,,,0.00,,2013-10-23 17:44:00,
2013-10-23 12:52:00,60.0,43.0,30.00,WNW,286,7.0,12.0,54,0.00,,,0.00,,2013-10-23 17:52:00,
2013-10-23 13:12:00,60.0,43.0,30.00,North,350,6.0,12.0,54,0.00,,,0.00,,2013-10-23 18:12:00,
2013-10-23 13:22:00,63.0,42.0,29.99,NNW,346,8.0,17.0,47,0.00,,,0.00,,2013-10-23 18:22:00,
2013-10-23 13:42:00,64.0,41.0,29.99,North,5,11.0,21.0,43,0.00,,,0.00,,2013-10-23 18:42:00,
2013-10-23 13:52:00,64.0,41.0,29.99,NNE,23,8.0,23.0,43,0.00,,,0.00,,2013-10-23 18:52:00,
2013-10-23 14:12:00,64.0,41.0,29.99,NNE,26,12.0,21.0,43,0.00,,,0.00,,2013-10-23 19:12:00,
2013-10-23 14:22:00,64.0,40.0,29.98,NNE,20,9.0,20.0,42,0.00,,,0.00,,2013-10-23 19:22:00,
2013-10-23 14:42:00,65.0,41.0,29.98,North,5,10.0,23.0,41,0.00,,,0.00,,2013-10-23 19:42:00,
2013-10-23 14:53:00,64.0,40.0,29.98,North,5,9.0,23.0,41,0.00,,,0.00,,2013-10-23 19:53:00,
2013-10-23 15:11:00,65.0,39.0,29.98,North,355,14.0,20.0,39,0.00,,,0.00,,2013-10-23 20:11:00,
2013-10-23 15:22:00,64.0,39.0,29.99,NNE,28,13.0,23.0,40,0.00,,,0.00,,2013-10-23 20:22:00,
2013-10-23 15:42:00,64.0,39.0,29.99,NNE,12,11.0,21.0,39,0.00,,,0.00,,2013-10-23 20:42:00,
2013-10-23 15:52:00,64.0,39.0,30.00,North,360,11.0,23.0,40,0.00,,,0.00,,2013-10-23 20:52:00,
2013-10-23 16:12:00,63.0,40.0,30.01,North,355,10.0,19.0,42,0.00,,,0.00,,2013-10-23 21:12:00,
2013-10-23 16:22:00,62.0,40.0,30.01,North,5,7.0,18.0,44,0.00,,,0.00,,2013-10-23 21:22:00,
2013-10-23 16:43:00,62.0,40.0,30.02,North,5,8.0,16.0,45,0.00,,,0.00,,2013-10-23 21:43:00,
2013-10-23 16:54:00,62.0,39.0,30.03,NNW,346,10.0,15.0,43,0.00,,,0.00,,2013-10-23 21:54:00,
2013-10-23 17:13:00,61.0,39.0,30.03,North,5,8.0,15.0,44,0.00,,,0.00,,2013-10-23 22:13:00,
2013-10-23 17:24:00,60.0,39.0,30.03,NNE,16,7.0,11.0,45,0.00,,,0.00,,2013-10-23 22:24:00,
2013-10-23 17:43:00,60.0,40.0,30.03,NNE,13,5.0,15.0,47,0.00,,,0.00,,2013-10-23 22:43:00,
2013-10-23 17:54:00,59.0,39.0,30.04,NE,42,6.0,14.0,48,0.00,,,0.00,,2013-10-23 22:54:00,
2013-10-23 18:12:00,59.0,39.0,30.05,NNE,24,7.0,13.0,48,0.00,,,0.00,,2013-10-23 23:12:00,
2013-10-23 18:22:00,58.0,39.0,30.05,NNE,31,6.0,12.0,49,0.00,,,0.00,,2013-10-23 23:22:00,
2013-10-23 18:42:00,57.0,39.0,30.06,NNE,16,5.0,11.0,50,0.00,,,0.00,,2013-10-23 23:42:00,
2013-10-23 18:52:00,56.0,40.0,30.06,NNE,14,1.0,7.0,54,0.00,,,0.00,,2013-10-23 23:52:00,
2013-10-23 19:12:00,54.0,39.0,30.06,NE,34,0.0,5.0,56,0.00,,,0.00,,2013-10-24 00:12:00,
2013-10-23 19:22:00,53.0,39.0,30.07,NE,42,0.0,2.0,59,0.00,,,0.00,,2013-10-24 00:22:00,
2013-10-23 19:42:00,52.0,38.0,30.08,NE,56,3.0,10.0,59,0.00,,,0.00,,2013-10-24 00:42:00,
2013-10-23 19:52:00,51.0,38.0,30.09,ENE,69,4.0,9.0,61,0.00,,,0.00,,2013-10-24 00:52:00,
2013-10-23 20:11:00,51.0,38.0,30.10,North,9,1.0,7.0,62,0.00,,,0.00,,2013-10-24 01:11:00,
2013-10-23 20:22:00,50.0,38.0,30.11,ENE,67,1.0,5.0,64,0.00,,,0.00,,2013-10-24 01:22:00,
2013-10-23 20:42:00,50.0,39.0,30.11,ENE,65,1.0,7.0,65,0.00,,,0.00,,2013-10-24 01:42:00,
2013-10-23 20:52:00,49.0,38.0,30.12,NNE,24,1.0,6.0,66,0.00,,,0.00,,2013-10-24 01:52:00,
2013-10-23 21:12:00,49.0,39.0,30.13,NE,46,1.0,7.0,67,0.00,,,0.00,,2013-10-24 02:12:00,
2013-10-23 21:22:00,48.0,38.0,30.13,ENE,61,0.0,6.0,68,0.00,,,0.00,,2013-10-24 02:22:00,
2013-10-23 22:12:00,48.0,39.0,30.14,ENE,71,0.0,3.0,71,0.00,,,0.00,,2013-10-24 03:12:00,
2013-10-23 22:22:00,47.0,39.0,30.15,ENE,71,0.0,2.0,73,0.00,,,0.00,,2013-10-24 03:22:00,
2013-10-23 22:44:00,47.0,39.0,30.15,ENE,65,0.0,7.0,74,0.00,,,0.00,,2013-10-24 03:44:00,
2013-10-23 22:55:00,46.0,39.0,30.15,ENE,67,0.0,1.0,75,0.00,,,0.00,,2013-10-24 03:55:00,
2013-10-23 23:14:00,46.0,39.0,30.16,ENE,67,0.0,1.0,76,0.00,,,0.00,,2013-10-24 04:14:00,
2013-10-23 23:24:00,46.0,39.0,30.18,East,86,0.0,2.0,76,0.00,,,0.00,,2013-10-24 04:24:00,
2013-10-23 23:44:00,46.0,39.0,30.18,East,86,0.0,1.0,77,0.00,,,0.00,,2013-10-24 04:44:00,
2013-10-23 23:54:00,46.0,39.0,30.19,East,86,0.0,1.0,77,0.00,,,0.00,,2013-10-24 04:54:00,